This is the latest recevied weather packets stored in our database for station/object KF0JHJ. If no packets are shown the sender has not sent any weather packets the latest 10 day(s).
| Time | Temp. | Humidity | Pressure | Rain* | Wind** | Luminosity | Snow |
|---|---|---|---|---|---|---|---|
| 1777694349 | 5° C | 60% | 1017 hPa | - | - | 0 W/m² | - |
| 1777694045 | 4.44° C | 62% | 1016.9 hPa | - | - | 0 W/m² | - |
| 1777693743 | 4.44° C | 61% | 1016.8 hPa | - | - | 0 W/m² | - |
| 1777693442 | 5° C | 60% | 1016.9 hPa | - | - | 0 W/m² | - |
| 1777693140 | 5° C | 61% | 1016.9 hPa | - | - | 0 W/m² | - |
| 1777692837 | 4.44° C | 62% | 1017 hPa | - | - | 0 W/m² | - |
| 1777692533 | 3.89° C | 64% | 1017 hPa | - | - | 0 W/m² | - |
| 1777692229 | 3.89° C | 65% | 1017 hPa | - | - | 0 W/m² | - |
| 1777691927 | 3.89° C | 62% | 1016.9 hPa | - | - | 0 W/m² | - |
| 1777691625 | 4.44° C | 62% | 1017.1 hPa | - | - | 0 W/m² | - |
| 1777691323 | 4.44° C | 61% | 1016.8 hPa | - | - | 0 W/m² | - |
| 1777691021 | 5° C | 57% | 1017 hPa | - | - | 0 W/m² | - |
| 1777690718 | 5.56° C | 55% | 1016.7 hPa | - | - | 0 W/m² | - |
| 1777690416 | 5.56° C | 54% | 1016.9 hPa | - | - | 0 W/m² | - |
| 1777690114 | 5.56° C | 56% | 1017 hPa | - | - | 0 W/m² | - |
| 1777689811 | 5.56° C | 56% | 1017.1 hPa | - | - | 0 W/m² | - |
| 1777689509 | 5.56° C | 56% | 1017 hPa | - | - | 0 W/m² | - |
| 1777689206 | 5.56° C | 54% | 1016.9 hPa | - | - | 0 W/m² | - |
| 1777688904 | 5.56° C | 54% | 1017.1 hPa | - | - | 0 W/m² | - |
| 1777688600 | 6.11° C | 55% | 1016.9 hPa | - | - | 0 W/m² | - |
| 1777688297 | 6.67° C | 52% | 1016.9 hPa | - | - | 0 W/m² | - |
| 1777687995 | 6.67° C | 52% | 1016.7 hPa | - | - | 0 W/m² | - |
| 1777687692 | 6.67° C | 52% | 1016.8 hPa | - | - | 0 W/m² | - |
| 1777687389 | 6.67° C | 53% | 1016.8 hPa | - | - | 0 W/m² | - |
| 1777687086 | 6.67° C | 53% | 1016.6 hPa | - | - | 0 W/m² | - |
* Rain since midnight (hover to see other rain measurements)
** Current wind speed in m/s (hover to see current wind gust speed)